createdAt,value
2022-09-14T00:01:47.327Z,16.10
2022-09-14T00:04:20.625Z,16.00
2022-09-14T00:06:49.273Z,15.90
2022-09-14T00:09:22.605Z,16.00
2022-09-14T00:11:51.354Z,15.80
2022-09-14T00:14:22.333Z,16.00
2022-09-14T00:16:51.018Z,15.90
2022-09-14T00:19:25.058Z,15.80
2022-09-14T00:21:58.105Z,15.50
2022-09-14T00:24:30.096Z,15.80
2022-09-14T00:27:02.623Z,15.80
2022-09-14T00:29:31.254Z,15.80
2022-09-14T00:32:01.400Z,15.80
2022-09-14T00:34:34.916Z,15.80
2022-09-14T00:37:02.592Z,15.90
2022-09-14T00:39:30.873Z,15.80
2022-09-14T00:41:58.440Z,16.20
2022-09-14T00:44:28.237Z,15.70
2022-09-14T00:46:58.901Z,16.00
2022-09-14T00:49:35.966Z,16.40
2022-09-14T00:52:12.665Z,15.70
2022-09-14T00:54:49.663Z,15.90
2022-09-14T00:57:18.114Z,15.90
2022-09-14T00:59:49.182Z,15.70
2022-09-14T01:02:26.478Z,15.80
2022-09-14T01:04:57.281Z,15.80
2022-09-14T01:08:26.866Z,15.60
2022-09-14T01:11:19.890Z,15.70
2022-09-14T01:13:56.390Z,15.60
2022-09-14T01:16:34.918Z,15.60
2022-09-14T01:19:15.135Z,15.60
2022-09-14T01:21:44.129Z,15.70
2022-09-14T01:24:17.590Z,15.60
2022-09-14T01:27:02.614Z,15.70
2022-09-14T01:29:40.893Z,15.70
2022-09-14T01:32:16.962Z,15.60
2022-09-14T01:34:50.485Z,15.70
2022-09-14T01:37:54.270Z,15.80
2022-09-14T01:40:35.554Z,15.50
2022-09-14T01:43:26.209Z,15.70
2022-09-14T01:45:57.563Z,15.50
2022-09-14T01:48:37.850Z,15.80
2022-09-14T01:51:12.675Z,15.70
2022-09-14T01:54:09.290Z,16.00
2022-09-14T02:00:19.158Z,15.60
2022-09-14T02:02:53.906Z,15.50
2022-09-14T02:05:35.419Z,15.70
2022-09-14T02:09:13.918Z,15.40
2022-09-14T02:11:41.536Z,15.40
2022-09-14T02:14:09.183Z,15.60
2022-09-14T02:16:36.840Z,15.40
2022-09-14T02:19:04.527Z,15.50
2022-09-14T02:21:33.450Z,15.50
2022-09-14T02:24:03.052Z,15.60
2022-09-14T02:26:30.750Z,15.40
2022-09-14T02:28:58.506Z,15.50
2022-09-14T02:31:30.178Z,16.00
2022-09-14T02:34:09.612Z,15.50
2022-09-14T02:36:47.519Z,15.40
2022-09-14T02:39:49.936Z,15.30
2022-09-14T02:42:17.355Z,15.30
2022-09-14T02:44:54.211Z,15.40
2022-09-14T02:47:49.935Z,15.40
2022-09-14T02:51:00.292Z,15.20
2022-09-14T02:53:48.063Z,15.20
2022-09-14T02:56:17.871Z,15.30
2022-09-14T02:58:46.075Z,15.30
2022-09-14T03:01:16.537Z,15.20
2022-09-14T03:03:46.475Z,15.20
2022-09-14T03:06:14.388Z,15.40
2022-09-14T03:08:45.476Z,15.30
2022-09-14T03:11:13.148Z,15.40
2022-09-14T03:13:41.148Z,15.20
2022-09-14T03:16:11.849Z,15.20
2022-09-14T03:18:39.925Z,15.10
2022-09-14T03:21:10.420Z,15.20
2022-09-14T03:23:46.553Z,15.20
2022-09-14T03:26:20.317Z,15.40
2022-09-14T03:28:56.756Z,15.60
2022-09-14T03:31:25.269Z,15.40
2022-09-14T03:33:55.112Z,16.00
2022-09-14T03:36:24.069Z,15.30
2022-09-14T03:38:53.697Z,15.40
2022-09-14T03:41:22.766Z,15.40
2022-09-14T03:43:50.352Z,15.40
2022-09-14T03:46:23.052Z,15.20
2022-09-14T03:48:51.374Z,15.10
2022-09-14T03:51:19.065Z,14.70
2022-09-14T03:53:46.782Z,15.30
2022-09-14T03:56:17.686Z,15.10
2022-09-14T03:58:46.162Z,15.20
2022-09-14T04:01:16.409Z,15.40
2022-09-14T04:03:44.682Z,14.90
2022-09-14T04:06:13.148Z,15.50
2022-09-14T04:09:13.110Z,15.50
2022-09-14T04:11:40.610Z,15.10
2022-09-14T04:14:08.395Z,15.30
2022-09-14T04:16:35.951Z,15.60
2022-09-14T04:19:03.882Z,15.20
2022-09-14T04:21:32.019Z,15.00
2022-09-14T04:24:14.772Z,15.20
2022-09-14T04:26:43.883Z,15.00
2022-09-14T04:29:12.735Z,15.20
2022-09-14T04:31:40.958Z,15.40
2022-09-14T04:34:10.499Z,15.30
2022-09-14T04:36:37.831Z,15.20
2022-09-14T04:39:06.195Z,15.20
2022-09-14T04:41:36.140Z,15.20
2022-09-14T04:44:03.535Z,15.20
2022-09-14T04:46:42.129Z,15.20
2022-09-14T04:49:13.011Z,15.20
2022-09-14T04:51:40.521Z,15.20
2022-09-14T04:54:07.984Z,15.30
2022-09-14T04:56:37.018Z,15.30
2022-09-14T04:59:05.716Z,15.70
2022-09-14T05:01:40.690Z,15.30
2022-09-14T05:04:09.020Z,15.10
2022-09-14T05:06:39.104Z,15.50
2022-09-14T05:09:16.126Z,15.50
2022-09-14T05:11:44.101Z,15.60
2022-09-14T05:14:13.372Z,15.50
2022-09-14T05:16:42.548Z,15.60
2022-09-14T05:19:14.514Z,15.60
2022-09-14T05:21:42.441Z,15.50
2022-09-14T05:24:17.782Z,15.60
2022-09-14T05:26:46.105Z,15.90
2022-09-14T05:29:15.952Z,15.90
2022-09-14T05:31:44.217Z,15.70
2022-09-14T05:34:11.973Z,15.80
2022-09-14T05:36:40.103Z,16.00
2022-09-14T05:40:10.825Z,15.80
2022-09-14T05:42:38.133Z,15.80
2022-09-14T05:45:05.919Z,15.80
2022-09-14T05:47:38.965Z,15.80
2022-09-14T05:50:15.950Z,16.00
2022-09-14T05:52:43.289Z,15.80
2022-09-14T05:55:10.681Z,15.80
2022-09-14T05:57:38.038Z,15.90
2022-09-14T06:00:06.506Z,15.90
2022-09-14T06:02:39.762Z,15.90
2022-09-14T06:05:07.650Z,16.10
2022-09-14T06:07:39.157Z,15.90
2022-09-14T06:10:09.909Z,15.90
2022-09-14T06:12:37.253Z,15.90
2022-09-14T06:15:05.153Z,15.90
2022-09-14T06:17:32.576Z,15.90
2022-09-14T06:20:04.144Z,16.10
2022-09-14T06:22:32.247Z,16.00
2022-09-14T06:24:59.522Z,16.00
2022-09-14T06:27:27.338Z,16.10
2022-09-14T06:29:54.738Z,16.10
2022-09-14T06:32:23.194Z,16.10
2022-09-14T06:34:50.489Z,16.50
2022-09-14T06:37:21.766Z,16.20
2022-09-14T06:39:49.191Z,16.20
2022-09-14T06:42:16.564Z,16.40
2022-09-14T06:44:53.570Z,16.30
2022-09-14T06:47:20.897Z,16.40
2022-09-14T06:49:49.855Z,16.40
2022-09-14T06:52:17.152Z,16.50
2022-09-14T06:54:45.023Z,16.70
2022-09-14T06:57:12.377Z,17.10
2022-09-14T06:59:40.139Z,17.90
2022-09-14T07:02:09.768Z,17.90
2022-09-14T07:04:37.343Z,18.00
2022-09-14T07:07:05.195Z,18.10
2022-09-14T07:09:32.551Z,18.50
2022-09-14T07:11:59.979Z,18.30
2022-09-14T07:14:31.582Z,18.40
2022-09-14T07:16:59.915Z,18.30
2022-09-14T07:19:27.367Z,18.30
2022-09-14T07:21:55.912Z,17.90
2022-09-14T07:24:28.813Z,18.60
2022-09-14T07:26:56.557Z,18.50
2022-09-14T07:29:23.917Z,18.50
2022-09-14T07:31:53.911Z,18.00
2022-09-14T07:34:21.761Z,18.40
2022-09-14T07:36:51.393Z,18.30
2022-09-14T07:39:28.145Z,18.50
2022-09-14T07:41:55.560Z,18.50
2022-09-14T07:44:25.381Z,18.70
2022-09-14T07:50:15.212Z,19.00
2022-09-14T07:53:51.840Z,19.00
2022-09-14T07:56:23.497Z,19.20
2022-09-14T07:59:11.871Z,19.20
2022-09-14T08:01:51.591Z,19.20
2022-09-14T08:04:19.136Z,19.50
2022-09-14T08:06:46.438Z,19.30
2022-09-14T08:09:14.254Z,19.50
2022-09-14T08:11:41.729Z,19.50
2022-09-14T08:14:12.901Z,19.60
2022-09-14T08:16:40.781Z,19.90
2022-09-14T08:19:13.621Z,19.90
2022-09-14T08:21:46.183Z,20.00
2022-09-14T08:24:16.918Z,20.40
2022-09-14T08:26:45.273Z,20.40
2022-09-14T08:29:23.589Z,20.50
2022-09-14T08:31:52.066Z,20.70
2022-09-14T08:34:24.723Z,21.10
2022-09-14T08:39:55.287Z,21.30
2022-09-14T08:42:25.952Z,21.80
2022-09-14T08:45:00.249Z,21.90
2022-09-14T08:47:47.019Z,21.80
2022-09-14T08:50:30.179Z,21.70
2022-09-14T08:53:10.602Z,21.80
2022-09-14T08:55:46.219Z,22.00
2022-09-14T08:58:46.303Z,22.00
2022-09-14T09:01:23.364Z,22.00
2022-09-14T09:04:28.334Z,21.90
2022-09-14T09:06:58.863Z,22.10
2022-09-14T09:09:39.379Z,22.10
2022-09-14T09:12:12.304Z,22.30
2022-09-14T09:16:13.206Z,22.40
2022-09-14T09:18:41.738Z,22.60
2022-09-14T09:21:17.524Z,22.80
2022-09-14T09:23:48.713Z,22.90
2022-09-14T09:26:30.879Z,23.00
2022-09-14T09:29:01.174Z,23.00
2022-09-14T09:31:39.012Z,23.10
2022-09-14T09:34:37.079Z,23.30
2022-09-14T09:37:31.411Z,23.20
2022-09-14T09:40:15.673Z,23.30
2022-09-14T09:43:45.824Z,23.20
2022-09-14T09:46:26.296Z,23.60
2022-09-14T09:52:16.809Z,23.70
2022-09-14T10:01:45.627Z,24.00
2022-09-14T10:11:38.462Z,24.10
2022-09-14T10:17:57.168Z,24.10
2022-09-14T10:20:52.855Z,23.90
2022-09-14T10:23:20.203Z,23.70
2022-09-14T10:26:13.186Z,23.50
2022-09-14T10:28:48.676Z,23.30
2022-09-14T10:31:42.882Z,23.50
2022-09-14T10:34:21.822Z,23.30
2022-09-14T10:37:49.858Z,23.20
2022-09-14T10:40:24.900Z,23.30
2022-09-14T10:43:43.757Z,23.50
2022-09-14T10:46:16.661Z,23.70
2022-09-14T10:49:13.867Z,24.10
2022-09-14T10:51:58.574Z,24.20
2022-09-14T10:54:38.469Z,24.10
2022-09-14T10:57:13.015Z,24.20
2022-09-14T11:00:00.162Z,24.20
2022-09-14T11:03:22.574Z,24.40
2022-09-14T11:06:01.486Z,24.40
2022-09-14T11:08:44.867Z,24.40
2022-09-14T11:11:45.142Z,24.50
2022-09-14T11:24:57.040Z,24.30
2022-09-14T11:27:30.377Z,24.30
2022-09-14T11:30:02.829Z,24.30
2022-09-14T11:32:54.612Z,24.50
2022-09-14T11:35:34.004Z,24.40
2022-09-14T11:38:15.578Z,24.60
2022-09-14T11:40:47.814Z,24.60
2022-09-14T11:43:15.044Z,24.70
2022-09-14T11:46:31.906Z,24.70
2022-09-14T11:49:37.616Z,24.40
2022-09-14T11:52:22.623Z,24.50
2022-09-14T11:54:51.224Z,24.20
2022-09-14T11:57:25.351Z,24.20
2022-09-14T11:59:57.551Z,24.30
2022-09-14T12:03:38.286Z,24.30
2022-09-14T12:06:32.496Z,24.30
2022-09-14T12:09:21.262Z,24.50
2022-09-14T12:11:58.525Z,24.70
2022-09-14T12:14:31.764Z,24.60
2022-09-14T12:17:39.766Z,24.60
2022-09-14T12:20:35.556Z,24.70
2022-09-14T12:23:20.660Z,24.30
2022-09-14T12:26:06.573Z,24.20
2022-09-14T12:28:37.329Z,24.20
2022-09-14T12:31:04.663Z,24.30
2022-09-14T12:33:31.936Z,24.20
2022-09-14T12:36:31.939Z,24.20
2022-09-14T12:38:59.554Z,24.20
2022-09-14T12:41:27.961Z,24.20
2022-09-14T12:43:55.787Z,24.20
2022-09-14T12:46:23.100Z,24.10
2022-09-14T12:48:52.297Z,24.10
2022-09-14T12:51:34.835Z,24.20
2022-09-14T12:54:09.661Z,24.20
2022-09-14T12:56:37.116Z,24.20
2022-09-14T12:59:30.550Z,24.20
2022-09-14T13:02:33.975Z,24.30
2022-09-14T13:05:03.033Z,24.30
2022-09-14T13:07:33.730Z,24.20
2022-09-14T13:10:01.855Z,24.10
2022-09-14T13:12:38.950Z,24.20
2022-09-14T13:15:16.126Z,24.30
2022-09-14T13:18:04.323Z,24.20
2022-09-14T13:20:34.667Z,24.20
2022-09-14T13:23:02.794Z,24.10
2022-09-14T13:25:37.375Z,24.10
2022-09-14T13:28:15.118Z,24.10
2022-09-14T13:30:43.189Z,24.00
2022-09-14T13:33:17.197Z,23.90
2022-09-14T13:36:01.020Z,23.90
2022-09-14T13:38:39.636Z,23.90
2022-09-14T13:41:11.216Z,23.80
2022-09-14T13:43:41.731Z,23.90
2022-09-14T13:46:11.540Z,23.80
2022-09-14T13:48:40.942Z,23.80
2022-09-14T13:51:10.528Z,23.70
2022-09-14T13:53:48.670Z,23.60
2022-09-14T13:56:31.107Z,23.60
2022-09-14T13:59:18.575Z,23.60
2022-09-14T14:01:58.205Z,23.50
2022-09-14T14:04:37.649Z,23.50
2022-09-14T14:07:14.268Z,23.40
2022-09-14T14:09:54.496Z,23.30
2022-09-14T14:12:27.896Z,23.30
2022-09-14T14:15:12.124Z,23.30
2022-09-14T14:17:40.852Z,23.40
2022-09-14T14:20:26.404Z,23.30
2022-09-14T14:23:10.515Z,23.30
2022-09-14T14:25:48.553Z,23.30
2022-09-14T14:28:28.732Z,23.10
2022-09-14T14:30:57.717Z,23.10
2022-09-14T14:33:25.365Z,23.10
2022-09-14T14:35:54.801Z,23.00
2022-09-14T14:38:23.557Z,22.90
2022-09-14T14:40:55.032Z,22.80
2022-09-14T14:43:25.220Z,22.70
2022-09-14T14:45:58.613Z,22.60
2022-09-14T14:48:27.797Z,22.60
2022-09-14T14:50:55.686Z,22.50
2022-09-14T14:53:24.274Z,22.50
2022-09-14T14:55:53.090Z,22.30
2022-09-14T14:58:22.329Z,22.20
2022-09-14T15:00:50.329Z,22.10
2022-09-14T15:03:19.043Z,22.20
2022-09-14T15:05:47.826Z,22.20
2022-09-14T15:08:21.409Z,22.20
2022-09-14T15:10:49.338Z,22.20
2022-09-14T15:13:16.694Z,22.20
2022-09-14T15:15:44.878Z,22.20
2022-09-14T15:18:12.199Z,22.20
2022-09-14T15:20:39.666Z,22.20
2022-09-14T15:23:07.031Z,22.20
2022-09-14T15:25:34.374Z,22.30
2022-09-14T15:28:02.331Z,22.20
2022-09-14T15:30:29.730Z,22.00
2022-09-14T15:33:05.738Z,22.10
2022-09-14T15:35:33.051Z,22.10
2022-09-14T15:38:10.718Z,21.90
2022-09-14T15:40:43.943Z,22.10
2022-09-14T15:43:13.911Z,22.10
2022-09-14T15:45:53.145Z,22.00
2022-09-14T15:48:23.155Z,21.90
2022-09-14T15:51:12.211Z,21.90
2022-09-14T15:53:40.066Z,21.90
2022-09-14T15:56:11.740Z,21.80
2022-09-14T15:58:44.745Z,21.70
2022-09-14T16:01:16.996Z,21.70
2022-09-14T16:03:50.568Z,21.40
2022-09-14T16:06:21.508Z,21.00
2022-09-14T16:10:29.020Z,20.50
2022-09-14T16:12:59.624Z,19.80
2022-09-14T16:15:27.113Z,19.10
2022-09-14T16:17:56.940Z,18.80
2022-09-14T16:21:01.461Z,18.60
2022-09-14T16:27:42.064Z,18.10
2022-09-14T16:30:14.140Z,17.80
2022-09-14T16:40:17.733Z,17.60
2022-09-14T16:43:00.311Z,17.60
2022-09-14T16:45:41.418Z,17.60
2022-09-14T16:48:08.922Z,17.60
2022-09-14T16:59:40.870Z,17.60
2022-09-14T17:02:21.056Z,17.60
2022-09-14T17:05:06.074Z,17.60
2022-09-14T17:09:07.091Z,17.60
2022-09-14T17:12:10.345Z,17.60
2022-09-14T17:19:49.846Z,17.60
2022-09-14T17:23:10.512Z,17.60
